sensor_id;sensor_type;location;lat;lon;timestamp;temperature;humidity
33594;DHT22;19920;52.242;20.940;2023-07-02T00:00:28;18.30;99.90
33594;DHT22;19920;52.242;20.940;2023-07-02T00:02:53;18.30;99.90
33594;DHT22;19920;52.242;20.940;2023-07-02T00:05:19;18.30;99.90
33594;DHT22;19920;52.242;20.940;2023-07-02T00:07:44;18.30;99.90
33594;DHT22;19920;52.242;20.940;2023-07-02T00:10:10;18.20;99.90
33594;DHT22;19920;52.242;20.940;2023-07-02T00:12:36;18.20;99.90
33594;DHT22;19920;52.242;20.940;2023-07-02T00:15:02;18.20;99.90
33594;DHT22;19920;52.242;20.940;2023-07-02T00:17:28;18.10;99.90
33594;DHT22;19920;52.242;20.940;2023-07-02T00:19:53;18.10;99.90
33594;DHT22;19920;52.242;20.940;2023-07-02T00:22:19;18.10;99.90
33594;DHT22;19920;52.242;20.940;2023-07-02T00:24:45;18.10;99.90
33594;DHT22;19920;52.242;20.940;2023-07-02T00:27:10;18.10;99.90
33594;DHT22;19920;52.242;20.940;2023-07-02T00:29:36;18.10;99.90
33594;DHT22;19920;52.242;20.940;2023-07-02T00:32:01;18.10;99.90
33594;DHT22;19920;52.242;20.940;2023-07-02T00:34:27;18.20;99.90
33594;DHT22;19920;52.242;20.940;2023-07-02T00:36:53;18.20;99.90
33594;DHT22;19920;52.242;20.940;2023-07-02T00:39:18;18.10;99.90
33594;DHT22;19920;52.242;20.940;2023-07-02T00:41:44;18.10;99.90
33594;DHT22;19920;52.242;20.940;2023-07-02T00:44:12;18.10;99.90
33594;DHT22;19920;52.242;20.940;2023-07-02T00:46:38;18.10;99.90
33594;DHT22;19920;52.242;20.940;2023-07-02T00:49:04;18.10;99.90
33594;DHT22;19920;52.242;20.940;2023-07-02T00:51:30;18.10;99.90
33594;DHT22;19920;52.242;20.940;2023-07-02T00:53:57;18.20;99.90
33594;DHT22;19920;52.242;20.940;2023-07-02T00:56:24;18.10;99.90
33594;DHT22;19920;52.242;20.940;2023-07-02T00:58:52;18.10;99.90
33594;DHT22;19920;52.242;20.940;2023-07-02T01:03:58;18.10;99.90
33594;DHT22;19920;52.242;20.940;2023-07-02T01:06:34;18.00;99.90
33594;DHT22;19920;52.242;20.940;2023-07-02T01:09:05;18.00;99.90
33594;DHT22;19920;52.242;20.940;2023-07-02T01:14:07;17.90;99.90
33594;DHT22;19920;52.242;20.940;2023-07-02T01:16:34;17.90;99.90
33594;DHT22;19920;52.242;20.940;2023-07-02T01:19:03;17.90;99.90
33594;DHT22;19920;52.242;20.940;2023-07-02T01:21:30;17.90;99.90
33594;DHT22;19920;52.242;20.940;2023-07-02T01:23:57;17.80;99.90
33594;DHT22;19920;52.242;20.940;2023-07-02T01:26:31;17.90;99.90
33594;DHT22;19920;52.242;20.940;2023-07-02T01:29:12;17.90;99.90
33594;DHT22;19920;52.242;20.940;2023-07-02T01:31:38;17.90;99.90
33594;DHT22;19920;52.242;20.940;2023-07-02T01:34:04;17.90;99.90
33594;DHT22;19920;52.242;20.940;2023-07-02T01:36:30;17.90;99.90
33594;DHT22;19920;52.242;20.940;2023-07-02T01:38:55;17.90;99.90
33594;DHT22;19920;52.242;20.940;2023-07-02T01:41:21;18.10;99.90
33594;DHT22;19920;52.242;20.940;2023-07-02T01:43:46;18.10;99.90
33594;DHT22;19920;52.242;20.940;2023-07-02T01:46:12;18.20;99.90
33594;DHT22;19920;52.242;20.940;2023-07-02T01:48:37;18.20;99.90
33594;DHT22;19920;52.242;20.940;2023-07-02T01:51:03;18.30;99.90
33594;DHT22;19920;52.242;20.940;2023-07-02T01:53:29;18.30;99.90
33594;DHT22;19920;52.242;20.940;2023-07-02T01:55:54;18.30;99.90
33594;DHT22;19920;52.242;20.940;2023-07-02T01:58:20;18.30;99.90
33594;DHT22;19920;52.242;20.940;2023-07-02T02:00:45;18.40;99.90
33594;DHT22;19920;52.242;20.940;2023-07-02T02:03:11;18.40;99.90
33594;DHT22;19920;52.242;20.940;2023-07-02T02:05:36;18.40;99.90
33594;DHT22;19920;52.242;20.940;2023-07-02T02:08:02;18.40;99.90
33594;DHT22;19920;52.242;20.940;2023-07-02T02:10:28;18.40;99.90
33594;DHT22;19920;52.242;20.940;2023-07-02T02:12:53;18.40;99.90
33594;DHT22;19920;52.242;20.940;2023-07-02T02:15:19;18.40;99.90
33594;DHT22;19920;52.242;20.940;2023-07-02T02:17:44;18.50;99.90
33594;DHT22;19920;52.242;20.940;2023-07-02T02:20:11;18.50;99.90
33594;DHT22;19920;52.242;20.940;2023-07-02T02:22:36;18.50;99.90
33594;DHT22;19920;52.242;20.940;2023-07-02T02:25:03;18.60;99.90
33594;DHT22;19920;52.242;20.940;2023-07-02T02:27:29;18.60;99.90
33594;DHT22;19920;52.242;20.940;2023-07-02T02:29:54;18.60;99.90
33594;DHT22;19920;52.242;20.940;2023-07-02T02:32:20;18.60;99.90
33594;DHT22;19920;52.242;20.940;2023-07-02T02:34:47;18.60;99.90
33594;DHT22;19920;52.242;20.940;2023-07-02T02:37:12;18.60;99.90
33594;DHT22;19920;52.242;20.940;2023-07-02T02:39:38;18.60;99.90
33594;DHT22;19920;52.242;20.940;2023-07-02T02:42:04;18.60;99.90
33594;DHT22;19920;52.242;20.940;2023-07-02T02:44:30;18.60;99.90
33594;DHT22;19920;52.242;20.940;2023-07-02T02:46:57;18.70;99.90
33594;DHT22;19920;52.242;20.940;2023-07-02T02:49:23;18.60;99.90
33594;DHT22;19920;52.242;20.940;2023-07-02T02:51:49;18.60;99.90
33594;DHT22;19920;52.242;20.940;2023-07-02T02:54:14;18.60;99.90
33594;DHT22;19920;52.242;20.940;2023-07-02T02:56:40;18.70;99.90
33594;DHT22;19920;52.242;20.940;2023-07-02T02:59:05;18.70;99.90
33594;DHT22;19920;52.242;20.940;2023-07-02T03:01:31;18.70;99.90
33594;DHT22;19920;52.242;20.940;2023-07-02T03:03:58;18.70;99.90
33594;DHT22;19920;52.242;20.940;2023-07-02T03:06:24;18.80;99.90
33594;DHT22;19920;52.242;20.940;2023-07-02T03:08:50;18.80;99.90
33594;DHT22;19920;52.242;20.940;2023-07-02T03:11:15;18.80;99.90
33594;DHT22;19920;52.242;20.940;2023-07-02T03:13:41;18.90;99.90
33594;DHT22;19920;52.242;20.940;2023-07-02T03:16:06;18.90;99.90
33594;DHT22;19920;52.242;20.940;2023-07-02T03:18:32;18.90;99.90
33594;DHT22;19920;52.242;20.940;2023-07-02T03:20:58;18.90;99.90
33594;DHT22;19920;52.242;20.940;2023-07-02T03:23:24;18.90;99.90
33594;DHT22;19920;52.242;20.940;2023-07-02T03:25:49;19.00;99.90
33594;DHT22;19920;52.242;20.940;2023-07-02T03:28:15;19.00;99.90
33594;DHT22;19920;52.242;20.940;2023-07-02T03:30:40;19.10;99.90
33594;DHT22;19920;52.242;20.940;2023-07-02T03:33:08;19.00;99.90
33594;DHT22;19920;52.242;20.940;2023-07-02T03:35:34;19.10;99.90
33594;DHT22;19920;52.242;20.940;2023-07-02T03:38:00;19.10;99.90
33594;DHT22;19920;52.242;20.940;2023-07-02T03:40:25;19.10;99.90
33594;DHT22;19920;52.242;20.940;2023-07-02T03:42:51;19.10;99.90
33594;DHT22;19920;52.242;20.940;2023-07-02T03:45:17;19.10;99.90
33594;DHT22;19920;52.242;20.940;2023-07-02T03:47:42;19.30;99.90
33594;DHT22;19920;52.242;20.940;2023-07-02T03:50:09;19.20;99.90
33594;DHT22;19920;52.242;20.940;2023-07-02T03:52:34;19.30;99.90
33594;DHT22;19920;52.242;20.940;2023-07-02T03:55:00;19.30;99.90
33594;DHT22;19920;52.242;20.940;2023-07-02T03:57:25;19.30;99.90
33594;DHT22;19920;52.242;20.940;2023-07-02T03:59:51;19.30;99.90
33594;DHT22;19920;52.242;20.940;2023-07-02T04:02:17;19.30;99.90
33594;DHT22;19920;52.242;20.940;2023-07-02T04:04:42;19.40;99.90
33594;DHT22;19920;52.242;20.940;2023-07-02T04:07:08;19.40;99.90
33594;DHT22;19920;52.242;20.940;2023-07-02T04:09:33;19.50;99.90
33594;DHT22;19920;52.242;20.940;2023-07-02T04:12:00;19.50;99.90
33594;DHT22;19920;52.242;20.940;2023-07-02T04:14:26;19.50;99.90
33594;DHT22;19920;52.242;20.940;2023-07-02T04:16:52;19.60;99.90
33594;DHT22;19920;52.242;20.940;2023-07-02T04:19:18;19.70;99.90
33594;DHT22;19920;52.242;20.940;2023-07-02T04:21:43;19.70;99.90
33594;DHT22;19920;52.242;20.940;2023-07-02T04:24:09;19.70;99.90
33594;DHT22;19920;52.242;20.940;2023-07-02T04:26:34;19.70;99.90
33594;DHT22;19920;52.242;20.940;2023-07-02T04:29:02;19.70;99.90
33594;DHT22;19920;52.242;20.940;2023-07-02T04:31:28;19.80;99.90
33594;DHT22;19920;52.242;20.940;2023-07-02T04:33:53;19.80;99.90
33594;DHT22;19920;52.242;20.940;2023-07-02T04:36:19;19.80;99.90
33594;DHT22;19920;52.242;20.940;2023-07-02T04:38:45;19.90;99.90
33594;DHT22;19920;52.242;20.940;2023-07-02T04:41:10;19.90;99.90
33594;DHT22;19920;52.242;20.940;2023-07-02T04:43:36;19.90;99.90
33594;DHT22;19920;52.242;20.940;2023-07-02T04:46:02;20.00;99.90
33594;DHT22;19920;52.242;20.940;2023-07-02T04:48:28;20.00;99.90
33594;DHT22;19920;52.242;20.940;2023-07-02T04:50:53;20.10;99.90
33594;DHT22;19920;52.242;20.940;2023-07-02T04:53:20;20.10;99.90
33594;DHT22;19920;52.242;20.940;2023-07-02T04:55:46;20.20;99.90
33594;DHT22;19920;52.242;20.940;2023-07-02T04:58:11;20.20;99.90
33594;DHT22;19920;52.242;20.940;2023-07-02T05:00:37;20.30;99.90
33594;DHT22;19920;52.242;20.940;2023-07-02T05:03:03;20.30;99.90
33594;DHT22;19920;52.242;20.940;2023-07-02T05:05:28;20.30;99.90
33594;DHT22;19920;52.242;20.940;2023-07-02T05:07:54;20.40;99.90
33594;DHT22;19920;52.242;20.940;2023-07-02T05:10:20;20.40;99.90
33594;DHT22;19920;52.242;20.940;2023-07-02T05:12:46;20.40;99.90
33594;DHT22;19920;52.242;20.940;2023-07-02T05:15:12;20.50;99.90
33594;DHT22;19920;52.242;20.940;2023-07-02T05:17:37;20.60;99.90
33594;DHT22;19920;52.242;20.940;2023-07-02T05:20:04;20.60;99.90
33594;DHT22;19920;52.242;20.940;2023-07-02T05:22:30;20.70;99.90
33594;DHT22;19920;52.242;20.940;2023-07-02T05:24:55;20.80;99.90
33594;DHT22;19920;52.242;20.940;2023-07-02T05:27:21;20.80;99.90
33594;DHT22;19920;52.242;20.940;2023-07-02T05:29:46;20.80;99.90
33594;DHT22;19920;52.242;20.940;2023-07-02T05:32:12;20.80;99.90
33594;DHT22;19920;52.242;20.940;2023-07-02T05:34:38;20.90;99.90
33594;DHT22;19920;52.242;20.940;2023-07-02T05:37:03;21.00;99.90
33594;DHT22;19920;52.242;20.940;2023-07-02T05:39:29;21.20;99.90
33594;DHT22;19920;52.242;20.940;2023-07-02T05:41:56;21.30;99.90
33594;DHT22;19920;52.242;20.940;2023-07-02T05:44:21;21.30;99.90
33594;DHT22;19920;52.242;20.940;2023-07-02T05:46:47;21.30;99.90
33594;DHT22;19920;52.242;20.940;2023-07-02T05:49:13;21.30;99.90
33594;DHT22;19920;52.242;20.940;2023-07-02T05:51:38;21.40;99.90
33594;DHT22;19920;52.242;20.940;2023-07-02T05:54:04;21.30;99.90
33594;DHT22;19920;52.242;20.940;2023-07-02T05:56:29;21.30;99.90
33594;DHT22;19920;52.242;20.940;2023-07-02T05:58:55;21.30;99.90
33594;DHT22;19920;52.242;20.940;2023-07-02T06:01:20;21.30;99.90
33594;DHT22;19920;52.242;20.940;2023-07-02T06:03:49;21.20;99.90
33594;DHT22;19920;52.242;20.940;2023-07-02T06:06:15;21.20;99.90
33594;DHT22;19920;52.242;20.940;2023-07-02T06:08:40;21.20;99.90
33594;DHT22;19920;52.242;20.940;2023-07-02T06:11:06;21.10;99.90
33594;DHT22;19920;52.242;20.940;2023-07-02T06:13:32;21.20;99.90
33594;DHT22;19920;52.242;20.940;2023-07-02T06:15:57;21.10;99.90
33594;DHT22;19920;52.242;20.940;2023-07-02T06:18:23;21.10;99.90
33594;DHT22;19920;52.242;20.940;2023-07-02T06:20:48;21.10;99.90
33594;DHT22;19920;52.242;20.940;2023-07-02T06:23:14;21.00;99.90
33594;DHT22;19920;52.242;20.940;2023-07-02T06:25:39;20.90;99.90
33594;DHT22;19920;52.242;20.940;2023-07-02T06:28:05;20.80;99.90
33594;DHT22;19920;52.242;20.940;2023-07-02T06:30:31;20.80;99.90
33594;DHT22;19920;52.242;20.940;2023-07-02T06:32:56;20.80;99.90
33594;DHT22;19920;52.242;20.940;2023-07-02T06:35:22;20.90;99.90
33594;DHT22;19920;52.242;20.940;2023-07-02T06:37:47;21.00;99.90
33594;DHT22;19920;52.242;20.940;2023-07-02T06:40:13;21.20;99.90
33594;DHT22;19920;52.242;20.940;2023-07-02T06:42:39;21.60;99.90
33594;DHT22;19920;52.242;20.940;2023-07-02T06:45:07;21.90;99.90
33594;DHT22;19920;52.242;20.940;2023-07-02T06:47:32;22.00;99.90
33594;DHT22;19920;52.242;20.940;2023-07-02T06:49:58;21.90;99.90
33594;DHT22;19920;52.242;20.940;2023-07-02T06:52:24;21.90;99.90
33594;DHT22;19920;52.242;20.940;2023-07-02T06:54:50;21.60;99.90
33594;DHT22;19920;52.242;20.940;2023-07-02T06:57:16;21.50;99.90
33594;DHT22;19920;52.242;20.940;2023-07-02T06:59:41;21.70;99.90
33594;DHT22;19920;52.242;20.940;2023-07-02T07:02:07;22.00;99.90
33594;DHT22;19920;52.242;20.940;2023-07-02T07:04:33;22.10;99.90
33594;DHT22;19920;52.242;20.940;2023-07-02T07:07:00;22.10;99.90
33594;DHT22;19920;52.242;20.940;2023-07-02T07:09:28;22.10;99.90
33594;DHT22;19920;52.242;20.940;2023-07-02T07:11:54;22.00;99.90
33594;DHT22;19920;52.242;20.940;2023-07-02T07:14:19;21.60;99.90
33594;DHT22;19920;52.242;20.940;2023-07-02T07:16:45;21.60;99.90
33594;DHT22;19920;52.242;20.940;2023-07-02T07:19:10;21.50;99.90
33594;DHT22;19920;52.242;20.940;2023-07-02T07:21:36;21.00;99.90
33594;DHT22;19920;52.242;20.940;2023-07-02T07:24:01;20.70;99.90
33594;DHT22;19920;52.242;20.940;2023-07-02T07:26:27;20.60;99.90
33594;DHT22;19920;52.242;20.940;2023-07-02T07:28:53;20.20;99.90
33594;DHT22;19920;52.242;20.940;2023-07-02T07:31:21;20.10;99.90
33594;DHT22;19920;52.242;20.940;2023-07-02T07:33:46;20.10;99.90
33594;DHT22;19920;52.242;20.940;2023-07-02T07:36:12;20.00;99.90
33594;DHT22;19920;52.242;20.940;2023-07-02T07:38:38;20.00;99.90
33594;DHT22;19920;52.242;20.940;2023-07-02T07:41:03;20.20;99.90
33594;DHT22;19920;52.242;20.940;2023-07-02T07:43:29;20.00;99.90
33594;DHT22;19920;52.242;20.940;2023-07-02T07:45:54;19.90;99.90
33594;DHT22;19920;52.242;20.940;2023-07-02T07:48:20;20.00;99.90
33594;DHT22;19920;52.242;20.940;2023-07-02T07:50:46;20.00;99.90
33594;DHT22;19920;52.242;20.940;2023-07-02T07:53:12;20.10;99.90
33594;DHT22;19920;52.242;20.940;2023-07-02T07:55:38;20.10;99.90
33594;DHT22;19920;52.242;20.940;2023-07-02T07:58:03;20.20;99.90
33594;DHT22;19920;52.242;20.940;2023-07-02T08:00:29;20.40;99.90
33594;DHT22;19920;52.242;20.940;2023-07-02T08:02:54;20.20;99.90
33594;DHT22;19920;52.242;20.940;2023-07-02T08:05:21;20.30;99.90
33594;DHT22;19920;52.242;20.940;2023-07-02T08:07:47;20.30;99.90
33594;DHT22;19920;52.242;20.940;2023-07-02T08:10:13;20.40;99.90
33594;DHT22;19920;52.242;20.940;2023-07-02T08:12:38;20.70;99.90
33594;DHT22;19920;52.242;20.940;2023-07-02T08:15:04;20.80;99.90
33594;DHT22;19920;52.242;20.940;2023-07-02T08:17:30;21.00;99.90
33594;DHT22;19920;52.242;20.940;2023-07-02T08:19:59;21.10;99.90
33594;DHT22;19920;52.242;20.940;2023-07-02T08:22:25;21.20;99.90
33594;DHT22;19920;52.242;20.940;2023-07-02T08:24:50;21.40;99.90
33594;DHT22;19920;52.242;20.940;2023-07-02T08:27:17;21.40;99.90
33594;DHT22;19920;52.242;20.940;2023-07-02T08:29:48;21.50;99.90
33594;DHT22;19920;52.242;20.940;2023-07-02T08:32:15;21.50;99.90
33594;DHT22;19920;52.242;20.940;2023-07-02T08:34:40;21.50;99.90
33594;DHT22;19920;52.242;20.940;2023-07-02T08:37:06;21.40;99.90
33594;DHT22;19920;52.242;20.940;2023-07-02T08:39:32;21.00;99.90
33594;DHT22;19920;52.242;20.940;2023-07-02T08:41:57;20.80;99.90
33594;DHT22;19920;52.242;20.940;2023-07-02T08:44:23;20.80;99.90
33594;DHT22;19920;52.242;20.940;2023-07-02T08:46:49;20.70;99.90
33594;DHT22;19920;52.242;20.940;2023-07-02T08:49:17;20.60;99.90
33594;DHT22;19920;52.242;20.940;2023-07-02T08:51:45;20.70;99.90
33594;DHT22;19920;52.242;20.940;2023-07-02T08:54:11;20.50;99.90
33594;DHT22;19920;52.242;20.940;2023-07-02T08:56:36;20.60;99.90
33594;DHT22;19920;52.242;20.940;2023-07-02T08:59:03;20.50;99.90
33594;DHT22;19920;52.242;20.940;2023-07-02T09:01:28;20.50;99.90
33594;DHT22;19920;52.242;20.940;2023-07-02T09:03:58;20.50;99.90
33594;DHT22;19920;52.242;20.940;2023-07-02T09:06:25;20.50;99.90
33594;DHT22;19920;52.242;20.940;2023-07-02T09:08:51;20.40;99.90
33594;DHT22;19920;52.242;20.940;2023-07-02T09:11:17;20.70;99.90
33594;DHT22;19920;52.242;20.940;2023-07-02T09:16:25;21.10;99.90
33594;DHT22;19920;52.242;20.940;2023-07-02T09:19:05;21.50;99.90
33594;DHT22;19920;52.242;20.940;2023-07-02T09:24:15;21.90;99.90
33594;DHT22;19920;52.242;20.940;2023-07-02T09:26:46;21.70;99.90
33594;DHT22;19920;52.242;20.940;2023-07-02T09:29:13;21.70;99.90
33594;DHT22;19920;52.242;20.940;2023-07-02T09:31:46;21.50;99.90
33594;DHT22;19920;52.242;20.940;2023-07-02T09:34:12;21.50;99.90
33594;DHT22;19920;52.242;20.940;2023-07-02T09:36:38;21.40;99.90
33594;DHT22;19920;52.242;20.940;2023-07-02T09:39:19;21.30;99.90
33594;DHT22;19920;52.242;20.940;2023-07-02T09:41:48;21.30;99.90
33594;DHT22;19920;52.242;20.940;2023-07-02T09:44:15;21.40;99.90
33594;DHT22;19920;52.242;20.940;2023-07-02T09:46:45;21.50;99.90
33594;DHT22;19920;52.242;20.940;2023-07-02T09:49:16;21.80;99.90
33594;DHT22;19920;52.242;20.940;2023-07-02T09:51:43;22.20;99.90
33594;DHT22;19920;52.242;20.940;2023-07-02T09:54:10;22.60;99.90
33594;DHT22;19920;52.242;20.940;2023-07-02T09:56:36;23.00;99.90
33594;DHT22;19920;52.242;20.940;2023-07-02T09:59:02;23.10;99.90
33594;DHT22;19920;52.242;20.940;2023-07-02T10:01:27;23.10;99.90
33594;DHT22;19920;52.242;20.940;2023-07-02T10:03:53;23.20;99.90
33594;DHT22;19920;52.242;20.940;2023-07-02T10:06:18;23.30;99.90
33594;DHT22;19920;52.242;20.940;2023-07-02T10:08:54;23.00;99.90
33594;DHT22;19920;52.242;20.940;2023-07-02T10:11:20;23.00;99.90
33594;DHT22;19920;52.242;20.940;2023-07-02T10:13:45;22.80;99.90
33594;DHT22;19920;52.242;20.940;2023-07-02T10:16:11;22.60;99.90
33594;DHT22;19920;52.242;20.940;2023-07-02T10:18:38;22.60;99.90
33594;DHT22;19920;52.242;20.940;2023-07-02T10:21:14;22.80;99.90
33594;DHT22;19920;52.242;20.940;2023-07-02T10:23:40;23.10;99.90
33594;DHT22;19920;52.242;20.940;2023-07-02T10:26:16;23.20;99.90
33594;DHT22;19920;52.242;20.940;2023-07-02T10:28:42;23.40;99.90
33594;DHT22;19920;52.242;20.940;2023-07-02T10:31:21;23.60;99.90
33594;DHT22;19920;52.242;20.940;2023-07-02T10:33:47;23.50;99.90
33594;DHT22;19920;52.242;20.940;2023-07-02T10:36:20;23.70;99.90
33594;DHT22;19920;52.242;20.940;2023-07-02T10:38:46;23.90;99.90
33594;DHT22;19920;52.242;20.940;2023-07-02T10:41:12;24.10;99.90
33594;DHT22;19920;52.242;20.940;2023-07-02T10:43:38;23.50;99.90
33594;DHT22;19920;52.242;20.940;2023-07-02T10:46:03;23.10;99.90
33594;DHT22;19920;52.242;20.940;2023-07-02T10:48:30;22.70;99.90
33594;DHT22;19920;52.242;20.940;2023-07-02T10:50:56;22.40;99.90
33594;DHT22;19920;52.242;20.940;2023-07-02T10:53:22;22.30;99.90
33594;DHT22;19920;52.242;20.940;2023-07-02T10:55:54;22.00;99.90
33594;DHT22;19920;52.242;20.940;2023-07-02T10:58:20;21.90;99.90
33594;DHT22;19920;52.242;20.940;2023-07-02T11:00:50;21.70;99.90
33594;DHT22;19920;52.242;20.940;2023-07-02T11:03:20;21.60;99.90
33594;DHT22;19920;52.242;20.940;2023-07-02T11:05:47;21.50;99.90
33594;DHT22;19920;52.242;20.940;2023-07-02T11:08:13;21.30;99.90
33594;DHT22;19920;52.242;20.940;2023-07-02T11:10:39;21.10;99.90
33594;DHT22;19920;52.242;20.940;2023-07-02T11:13:18;20.60;99.90
33594;DHT22;19920;52.242;20.940;2023-07-02T11:15:45;20.40;99.90
33594;DHT22;19920;52.242;20.940;2023-07-02T11:18:14;20.00;99.90
33594;DHT22;19920;52.242;20.940;2023-07-02T11:20:42;19.70;99.90
33594;DHT22;19920;52.242;20.940;2023-07-02T11:23:21;19.50;99.90
33594;DHT22;19920;52.242;20.940;2023-07-02T11:26:01;19.60;99.90
33594;DHT22;19920;52.242;20.940;2023-07-02T11:28:29;19.90;99.90
33594;DHT22;19920;52.242;20.940;2023-07-02T11:30:55;20.20;99.90
33594;DHT22;19920;52.242;20.940;2023-07-02T11:33:38;20.50;99.90
33594;DHT22;19920;52.242;20.940;2023-07-02T11:36:05;20.50;99.90
33594;DHT22;19920;52.242;20.940;2023-07-02T11:38:31;20.30;99.90
33594;DHT22;19920;52.242;20.940;2023-07-02T11:40:56;20.40;99.90
33594;DHT22;19920;52.242;20.940;2023-07-02T11:43:22;20.30;99.90
33594;DHT22;19920;52.242;20.940;2023-07-02T11:45:47;20.20;99.90
33594;DHT22;19920;52.242;20.940;2023-07-02T11:48:13;20.10;99.90
33594;DHT22;19920;52.242;20.940;2023-07-02T11:50:39;20.30;99.90
33594;DHT22;19920;52.242;20.940;2023-07-02T11:53:04;20.50;99.90
33594;DHT22;19920;52.242;20.940;2023-07-02T11:55:30;20.80;99.90
33594;DHT22;19920;52.242;20.940;2023-07-02T11:57:56;21.10;99.90
33594;DHT22;19920;52.242;20.940;2023-07-02T12:00:21;21.30;99.90
33594;DHT22;19920;52.242;20.940;2023-07-02T12:02:47;21.60;99.90
33594;DHT22;19920;52.242;20.940;2023-07-02T12:05:13;21.50;99.90
33594;DHT22;19920;52.242;20.940;2023-07-02T12:07:39;21.50;99.90
33594;DHT22;19920;52.242;20.940;2023-07-02T12:10:06;21.60;99.90
33594;DHT22;19920;52.242;20.940;2023-07-02T12:12:31;21.70;99.90
33594;DHT22;19920;52.242;20.940;2023-07-02T12:14:57;21.90;99.90
33594;DHT22;19920;52.242;20.940;2023-07-02T12:17:22;22.10;99.90
33594;DHT22;19920;52.242;20.940;2023-07-02T12:19:48;22.40;99.90
33594;DHT22;19920;52.242;20.940;2023-07-02T12:22:14;22.70;99.90
33594;DHT22;19920;52.242;20.940;2023-07-02T12:24:43;22.90;99.90
33594;DHT22;19920;52.242;20.940;2023-07-02T12:27:09;23.10;99.90
33594;DHT22;19920;52.242;20.940;2023-07-02T12:29:36;23.20;99.90
33594;DHT22;19920;52.242;20.940;2023-07-02T12:32:01;23.30;99.90
33594;DHT22;19920;52.242;20.940;2023-07-02T12:34:27;23.40;99.90
33594;DHT22;19920;52.242;20.940;2023-07-02T12:36:54;23.40;99.90
33594;DHT22;19920;52.242;20.940;2023-07-02T12:39:20;23.50;99.90
33594;DHT22;19920;52.242;20.940;2023-07-02T12:41:45;23.60;99.90
33594;DHT22;19920;52.242;20.940;2023-07-02T12:44:11;23.60;99.90
33594;DHT22;19920;52.242;20.940;2023-07-02T12:46:37;23.70;99.90
33594;DHT22;19920;52.242;20.940;2023-07-02T12:49:02;23.80;99.90
33594;DHT22;19920;52.242;20.940;2023-07-02T12:51:28;24.00;99.90
33594;DHT22;19920;52.242;20.940;2023-07-02T12:53:53;24.30;99.90
33594;DHT22;19920;52.242;20.940;2023-07-02T12:56:19;24.50;99.90
33594;DHT22;19920;52.242;20.940;2023-07-02T12:58:44;24.70;99.90
33594;DHT22;19920;52.242;20.940;2023-07-02T13:01:10;24.50;99.90
33594;DHT22;19920;52.242;20.940;2023-07-02T13:03:35;24.50;99.90
33594;DHT22;19920;52.242;20.940;2023-07-02T13:06:01;24.50;99.90
33594;DHT22;19920;52.242;20.940;2023-07-02T13:08:27;24.50;99.90
33594;DHT22;19920;52.242;20.940;2023-07-02T13:10:52;24.50;99.90
33594;DHT22;19920;52.242;20.940;2023-07-02T13:13:18;24.50;99.90
33594;DHT22;19920;52.242;20.940;2023-07-02T13:15:43;24.70;99.90
33594;DHT22;19920;52.242;20.940;2023-07-02T13:18:09;25.10;99.90
33594;DHT22;19920;52.242;20.940;2023-07-02T13:20:34;24.80;99.90
33594;DHT22;19920;52.242;20.940;2023-07-02T13:23:00;24.50;99.90
33594;DHT22;19920;52.242;20.940;2023-07-02T13:25:26;24.40;99.90
33594;DHT22;19920;52.242;20.940;2023-07-02T13:27:51;24.50;99.90
33594;DHT22;19920;52.242;20.940;2023-07-02T13:30:17;24.40;99.90
33594;DHT22;19920;52.242;20.940;2023-07-02T13:32:42;24.20;99.90
33594;DHT22;19920;52.242;20.940;2023-07-02T13:35:08;24.20;99.90
33594;DHT22;19920;52.242;20.940;2023-07-02T13:37:33;24.10;99.90
33594;DHT22;19920;52.242;20.940;2023-07-02T13:39:59;23.90;99.90
33594;DHT22;19920;52.242;20.940;2023-07-02T13:42:25;23.70;99.90
33594;DHT22;19920;52.242;20.940;2023-07-02T13:44:50;23.70;99.90
33594;DHT22;19920;52.242;20.940;2023-07-02T13:47:16;23.70;99.90
33594;DHT22;19920;52.242;20.940;2023-07-02T13:49:41;23.70;99.90
33594;DHT22;19920;52.242;20.940;2023-07-02T13:52:07;23.60;99.90
33594;DHT22;19920;52.242;20.940;2023-07-02T13:54:33;23.50;99.90
33594;DHT22;19920;52.242;20.940;2023-07-02T13:56:58;23.50;99.90
33594;DHT22;19920;52.242;20.940;2023-07-02T13:59:24;23.60;99.90
33594;DHT22;19920;52.242;20.940;2023-07-02T14:01:49;23.50;99.90
33594;DHT22;19920;52.242;20.940;2023-07-02T14:04:16;23.70;99.90
33594;DHT22;19920;52.242;20.940;2023-07-02T14:06:42;23.90;99.90
33594;DHT22;19920;52.242;20.940;2023-07-02T14:09:09;24.40;99.90
33594;DHT22;19920;52.242;20.940;2023-07-02T14:11:38;24.60;99.90
33594;DHT22;19920;52.242;20.940;2023-07-02T14:14:04;24.50;99.90
33594;DHT22;19920;52.242;20.940;2023-07-02T14:16:31;24.80;99.90
33594;DHT22;19920;52.242;20.940;2023-07-02T14:18:56;24.90;99.90
33594;DHT22;19920;52.242;20.940;2023-07-02T14:21:22;25.40;99.90
33594;DHT22;19920;52.242;20.940;2023-07-02T14:23:48;26.10;99.90
33594;DHT22;19920;52.242;20.940;2023-07-02T14:26:13;26.20;99.90
33594;DHT22;19920;52.242;20.940;2023-07-02T14:28:39;26.40;99.90
33594;DHT22;19920;52.242;20.940;2023-07-02T14:31:05;26.90;99.90
33594;DHT22;19920;52.242;20.940;2023-07-02T14:33:33;28.10;99.90
33594;DHT22;19920;52.242;20.940;2023-07-02T14:36:00;29.50;99.90
33594;DHT22;19920;52.242;20.940;2023-07-02T14:38:26;30.80;99.90
33594;DHT22;19920;52.242;20.940;2023-07-02T14:40:53;31.00;99.90
33594;DHT22;19920;52.242;20.940;2023-07-02T14:43:19;30.80;99.90
33594;DHT22;19920;52.242;20.940;2023-07-02T14:45:50;30.90;99.90
33594;DHT22;19920;52.242;20.940;2023-07-02T14:48:16;29.50;99.30
33594;DHT22;19920;52.242;20.940;2023-07-02T14:50:49;28.40;99.90
33594;DHT22;19920;52.242;20.940;2023-07-02T14:53:16;27.30;99.90
33594;DHT22;19920;52.242;20.940;2023-07-02T14:55:41;26.40;99.90
33594;DHT22;19920;52.242;20.940;2023-07-02T14:58:07;25.70;99.90
33594;DHT22;19920;52.242;20.940;2023-07-02T15:00:33;25.40;99.90
33594;DHT22;19920;52.242;20.940;2023-07-02T15:02:59;25.60;99.90
33594;DHT22;19920;52.242;20.940;2023-07-02T15:05:24;26.30;99.90
33594;DHT22;19920;52.242;20.940;2023-07-02T15:07:50;27.30;99.90
33594;DHT22;19920;52.242;20.940;2023-07-02T15:10:17;27.80;99.90
33594;DHT22;19920;52.242;20.940;2023-07-02T15:12:43;28.10;99.90
33594;DHT22;19920;52.242;20.940;2023-07-02T15:15:09;29.20;99.90
33594;DHT22;19920;52.242;20.940;2023-07-02T15:17:34;29.70;99.90
33594;DHT22;19920;52.242;20.940;2023-07-02T15:20:00;30.40;99.90